createdAt,value
2022-10-14T00:03:18.501Z,2.13
2022-10-14T00:13:20.263Z,1.67
2022-10-14T00:23:22.161Z,1.58
2022-10-14T00:33:24.693Z,1.73
2022-10-14T00:43:28.943Z,1.30
2022-10-14T00:53:30.754Z,1.83
2022-10-14T01:03:34.128Z,1.20
2022-10-14T01:13:44.182Z,1.50
2022-10-14T01:24:12.115Z,1.00
2022-10-14T01:34:19.540Z,1.10
2022-10-14T01:44:26.818Z,1.73
2022-10-14T01:54:34.958Z,1.52
2022-10-14T02:04:36.779Z,2.35
2022-10-14T02:15:00.859Z,1.42
2022-10-14T02:25:25.271Z,1.98
2022-10-14T02:35:28.800Z,1.45
2022-10-14T02:45:30.695Z,1.40
2022-10-14T02:55:33.911Z,2.05
2022-10-14T03:05:35.803Z,0.82
2022-10-14T03:15:43.800Z,1.20
2022-10-14T03:25:47.129Z,2.08
2022-10-14T03:36:12.159Z,1.38
2022-10-14T03:46:34.369Z,1.15
2022-10-14T03:56:37.452Z,1.23
2022-10-14T04:06:39.323Z,1.10
2022-10-14T04:16:49.532Z,1.25
2022-10-14T04:26:52.868Z,1.20
2022-10-14T04:37:15.003Z,1.10
2022-10-14T04:47:26.686Z,1.27
2022-10-14T04:57:33.730Z,1.00
2022-10-14T05:07:36.768Z,1.85
2022-10-14T05:17:54.485Z,1.35
2022-10-14T05:28:04.135Z,1.30
2022-10-14T05:38:07.000Z,1.83
2022-10-14T05:48:13.258Z,1.50
2022-10-14T05:58:15.550Z,1.42
2022-10-14T06:08:20.171Z,3.95
2022-10-14T06:18:22.293Z,39.38
2022-10-14T06:28:24.321Z,58.00
2022-10-14T06:38:26.154Z,42.17
2022-10-14T06:48:27.964Z,45.08
2022-10-14T06:58:30.073Z,40.50
2022-10-14T07:08:32.293Z,35.35
2022-10-14T07:18:34.120Z,39.13
2022-10-14T07:28:36.089Z,31.98
2022-10-14T07:38:38.545Z,27.83
2022-10-14T07:48:57.563Z,24.95
2022-10-14T07:58:59.816Z,18.65
2022-10-14T08:09:03.680Z,19.50
2022-10-14T08:19:13.506Z,22.10
2022-10-14T08:29:16.944Z,14.40
2022-10-14T08:39:19.383Z,15.43
2022-10-14T08:49:42.939Z,12.80
2022-10-14T08:59:45.213Z,13.23
2022-10-14T09:10:02.413Z,8.85
2022-10-14T09:20:18.467Z,6.43
2022-10-14T09:30:20.359Z,10.10
2022-10-14T09:40:37.657Z,8.07
2022-10-14T09:50:48.320Z,5.43
2022-10-14T10:00:57.383Z,5.38
2022-10-14T10:11:14.330Z,3.40
2022-10-14T10:21:27.843Z,5.25
2022-10-14T10:42:09.798Z,8.02
2022-10-14T10:52:30.699Z,3.58
2022-10-14T11:02:45.946Z,2.88
2022-10-14T11:13:04.613Z,4.20
2022-10-14T11:23:18.635Z,1.70
2022-10-14T11:33:37.452Z,3.95
2022-10-14T11:44:15.144Z,1.60
2022-10-14T11:54:32.662Z,2.08
2022-10-14T12:04:37.325Z,1.50
2022-10-14T12:14:52.220Z,1.55
2022-10-14T12:24:56.206Z,1.98
2022-10-14T12:35:01.691Z,1.42
2022-10-14T12:45:20.055Z,1.63
2022-10-14T12:55:24.610Z,1.40
2022-10-14T13:05:36.505Z,1.88
2022-10-14T13:15:52.769Z,0.80
2022-10-14T13:26:05.261Z,0.90
2022-10-14T13:36:22.442Z,1.25
2022-10-14T13:46:34.609Z,3.78
2022-10-14T13:56:40.778Z,1.35
2022-10-14T14:07:03.108Z,1.02
2022-10-14T14:17:16.909Z,1.25
2022-10-14T14:27:24.510Z,1.55
2022-10-14T14:47:56.486Z,5.88
2022-10-14T14:58:02.548Z,4.82
2022-10-14T15:08:04.847Z,3.45
2022-10-14T15:18:13.502Z,5.70
2022-10-14T15:28:32.523Z,5.50
2022-10-14T15:38:37.524Z,3.30
2022-10-14T15:48:52.323Z,2.55
2022-10-14T15:58:54.502Z,2.58
2022-10-14T16:08:56.707Z,1.60
2022-10-14T16:19:02.326Z,1.88
2022-10-14T16:29:04.299Z,1.55
2022-10-14T16:39:06.179Z,2.58
2022-10-14T16:49:08.330Z,1.55
2022-10-14T16:59:13.766Z,1.17
2022-10-14T17:09:17.261Z,2.42
2022-10-14T17:19:19.831Z,0.93
2022-10-14T17:29:22.571Z,0.65
2022-10-14T17:39:29.290Z,0.50
2022-10-14T17:49:31.803Z,3.83
2022-10-14T17:59:34.872Z,0.73
2022-10-14T18:09:36.648Z,0.57
2022-10-14T18:19:41.092Z,0.63
2022-10-14T18:29:43.173Z,0.80
2022-10-14T18:39:44.991Z,1.48
2022-10-14T18:49:48.318Z,0.80
2022-10-14T18:59:51.175Z,0.50
2022-10-14T19:09:55.600Z,0.55
2022-10-14T19:20:00.927Z,0.30
2022-10-14T19:30:02.783Z,0.30
2022-10-14T19:40:04.985Z,0.40
2022-10-14T19:50:07.351Z,0.30
2022-10-14T20:00:09.982Z,0.80
2022-10-14T20:10:12.440Z,0.73
2022-10-14T20:20:14.232Z,0.20
2022-10-14T20:30:16.380Z,0.50
2022-10-14T20:40:20.001Z,0.50
2022-10-14T20:50:22.796Z,0.28
2022-10-14T21:00:24.710Z,0.38
2022-10-14T21:10:27.492Z,0.30
2022-10-14T21:20:29.415Z,0.30
2022-10-14T21:30:31.305Z,0.50
2022-10-14T21:40:33.307Z,0.13
2022-10-14T21:50:35.070Z,0.30
2022-10-14T22:00:36.841Z,0.10
2022-10-14T22:10:41.984Z,0.10
2022-10-14T22:20:43.812Z,0.40
2022-10-14T22:30:45.720Z,0.20
2022-10-14T22:40:47.954Z,0.43
2022-10-14T22:50:49.712Z,0.15
2022-10-14T23:00:51.590Z,0.20
2022-10-14T23:10:53.449Z,0.10
2022-10-14T23:20:55.570Z,0.45
2022-10-14T23:30:58.143Z,0.40
2022-10-14T23:41:02.676Z,0.15
2022-10-14T23:51:05.065Z,0.10
